Time;durP1;ratioP1;P1;durP2;ratioP2;P2;SDS_P1;SDS_P2;PMS_P1;PMS_P2;Temp;Humidity;BMP_temperature;BMP_pressure;BME280_temperature;BME280_humidity;BME280_pressure;Samples;Min_cycle;Max_cycle;Signal;HPM_P1;HPM_P2
2021/01/14 00:00:26;;;;;;;4.53;3.35;;;;;;;0.70;100.00;95477.72;1040119;28;20009;-72
2021/01/14 00:00:57;;;;;;;4.30;2.90;;;;;;;0.94;100.00;95521.88;1044345;28;20103;-72
2021/01/14 00:01:28;;;;;;;4.47;2.97;;;;;;;0.96;100.00;95519.13;1040115;28;20013;-72
2021/01/14 00:01:59;;;;;;;4.88;3.20;;;;;;;0.87;100.00;95513.72;1040225;28;20103;-72
2021/01/14 00:02:30;;;;;;;4.95;3.13;;;;;;;0.90;100.00;95518.69;1027882;28;20022;-72
2021/01/14 00:03:01;;;;;;;6.18;3.25;;;;;;;0.90;100.00;95515.25;1036106;28;20029;-72
2021/01/14 00:03:32;;;;;;;3.70;2.70;;;;;;;0.92;100.00;95518.56;1035869;28;20381;-72
2021/01/14 00:04:03;;;;;;;4.32;2.63;;;;;;;0.91;100.00;95522.97;1040174;28;20100;-72
2021/01/14 00:04:33;;;;;;;4.18;3.05;;;;;;;0.89;100.00;95521.44;1040247;28;20084;-72
2021/01/14 00:05:06;;;;;;;3.47;2.42;;;;;;;0.87;100.00;95505.03;1040211;28;20433;-72
2021/01/14 00:05:38;;;;;;;3.70;2.47;;;;;;;0.91;100.00;95509.91;1040247;28;20084;-71
2021/01/14 00:06:09;;;;;;;3.50;2.28;;;;;;;0.97;100.00;95515.56;1032086;28;20021;-72
2021/01/14 00:06:40;;;;;;;4.88;2.95;;;;;;;0.97;100.00;95515.56;1040177;28;20049;-72
2021/01/14 00:07:10;;;;;;;4.38;2.63;;;;;;;0.87;100.00;95505.03;1040241;28;20013;-71
2021/01/14 00:07:41;;;;;;;4.85;3.15;;;;;;;0.92;100.00;95513.31;1036353;28;20470;-71
2021/01/14 00:08:12;;;;;;;4.90;3.03;;;;;;;0.93;100.00;95515.81;1044193;28;20112;-72
2021/01/14 00:08:43;;;;;;;5.20;3.60;;;;;;;0.94;100.00;95517.50;1036015;28;20021;-72
2021/01/14 00:09:14;;;;;;;4.63;3.10;;;;;;;0.93;100.00;95509.78;1032178;28;20015;-72
2021/01/14 00:09:44;;;;;;;4.28;3.05;;;;;;;0.95;100.00;95523.53;1031980;28;20598;-72
2021/01/14 00:10:15;;;;;;;4.50;2.88;;;;;;;0.94;100.00;95525.34;1036143;28;20033;-72
2021/01/14 00:10:46;;;;;;;3.70;2.90;;;;;;;0.84;100.00;95511.38;1031946;28;20375;-72
2021/01/14 00:11:17;;;;;;;4.72;3.25;;;;;;;0.92;100.00;95524.63;1028068;28;20061;-72
2021/01/14 00:11:47;;;;;;;3.67;2.70;;;;;;;0.97;100.00;95526.03;1048442;28;20100;-72
2021/01/14 00:12:18;;;;;;;4.63;2.75;;;;;;;1.00;100.00;95528.41;1035960;28;20026;-73
2021/01/14 00:12:50;;;;;;;3.95;2.70;;;;;;;0.98;100.00;95532.94;1044133;28;20017;-73
2021/01/14 00:13:21;;;;;;;3.50;2.35;;;;;;;0.96;100.00;95524.34;1040144;28;20017;-71
2021/01/14 00:13:51;;;;;;;4.32;2.83;;;;;;;0.97;100.00;95534.69;1040098;28;20028;-72
2021/01/14 00:14:22;;;;;;;4.38;2.72;;;;;;;0.96;100.00;95532.19;1048339;28;20070;-72
2021/01/14 00:14:53;;;;;;;3.88;2.47;;;;;;;0.97;100.00;95539.91;1040127;28;20025;-72
2021/01/14 00:15:24;;;;;;;3.90;2.28;;;;;;;0.96;100.00;95553.13;1036109;28;20026;-72
2021/01/14 00:15:55;;;;;;;4.07;2.60;;;;;;;0.89;100.00;95524.88;1032036;28;20038;-71
2021/01/14 00:16:26;;;;;;;3.83;2.30;;;;;;;1.00;100.00;95546.69;1032115;28;20430;-72
2021/01/14 00:16:57;;;;;;;4.40;3.00;;;;;;;1.01;100.00;95540.50;1039994;28;20036;-72
2021/01/14 00:17:27;;;;;;;3.17;1.88;;;;;;;1.01;100.00;95543.97;1036094;28;20109;-71
2021/01/14 00:17:58;;;;;;;3.22;2.30;;;;;;;1.00;100.00;95544.09;1044307;28;20025;-71
2021/01/14 00:18:29;;;;;;;3.72;2.30;;;;;;;0.96;100.00;95534.81;1035961;28;20026;-71
2021/01/14 00:19:00;;;;;;;3.47;2.45;;;;;;;0.99;100.00;95534.56;1039989;28;20025;-72
2021/01/14 00:19:31;;;;;;;4.82;3.05;;;;;;;1.01;100.00;95538.72;1044472;28;20020;-71
2021/01/14 00:20:03;;;;;;;4.05;2.58;;;;;;;1.03;100.00;95541.19;1036052;28;20022;-72
2021/01/14 00:20:34;;;;;;;3.75;2.08;;;;;;;1.00;100.00;95536.25;1032024;28;20022;-72
2021/01/14 00:21:05;;;;;;;5.05;3.13;;;;;;;1.02;100.00;95534.31;1040004;28;20469;-72
2021/01/14 00:21:43;;;;;;;4.43;3.00;;;;;;;1.02;100.00;95531.72;1036048;28;20022;-72
2021/01/14 00:22:14;;;;;;;3.85;2.55;;;;;;;0.85;100.00;95515.63;1040151;28;20025;-72
2021/01/14 00:22:45;;;;;;;4.13;2.75;;;;;;;0.87;100.00;95526.81;1040147;28;20534;-72
2021/01/14 00:23:15;;;;;;;3.80;2.50;;;;;;;0.90;100.00;95546.63;1027959;28;20495;-72
2021/01/14 00:23:46;;;;;;;4.25;2.85;;;;;;;0.91;100.00;95530.81;1040172;28;20018;-71
2021/01/14 00:24:17;;;;;;;5.85;2.70;;;;;;;0.89;100.00;95527.50;1040196;28;20025;-71
2021/01/14 00:24:48;;;;;;;4.72;2.90;;;;;;;0.89;100.00;95543.19;1031905;28;20026;-71
2021/01/14 00:25:18;;;;;;;4.40;2.70;;;;;;;0.90;100.00;95534.38;1031931;28;20076;-72
2021/01/14 00:25:49;;;;;;;3.83;2.50;;;;;;;0.89;100.00;95532.72;1040101;28;20021;-71
2021/01/14 00:26:20;;;;;;;4.20;2.88;;;;;;;0.92;100.00;95537.69;1036106;28;20030;-71
2021/01/14 00:26:50;;;;;;;4.22;2.70;;;;;;;0.87;100.00;95520.72;1043682;28;20033;-71
2021/01/14 00:27:21;;;;;;;4.60;2.50;;;;;;;0.94;100.00;95532.31;1035992;28;20441;-72
2021/01/14 00:27:52;;;;;;;4.22;2.67;;;;;;;0.89;100.00;95530.09;1036049;28;20053;-72
2021/01/14 00:28:23;;;;;;;4.38;2.90;;;;;;;0.91;100.00;95530.00;1040118;28;20017;-72
2021/01/14 00:28:54;;;;;;;3.90;2.78;;;;;;;0.89;100.00;95548.41;1040112;28;20524;-72
2021/01/14 00:29:24;;;;;;;4.35;2.70;;;;;;;0.90;100.00;95555.28;1044268;28;20028;-71
2021/01/14 00:29:55;;;;;;;3.83;2.30;;;;;;;0.91;100.00;95533.41;1040142;28;20021;-71
2021/01/14 00:30:28;;;;;;;3.85;2.55;;;;;;;0.82;100.00;95522.88;1035956;28;20133;-72
2021/01/14 00:30:58;;;;;;;3.40;2.53;;;;;;;0.88;100.00;95525.00;1040154;28;20010;-71
2021/01/14 00:31:29;;;;;;;3.95;2.78;;;;;;;0.90;100.00;95526.53;1035839;28;20016;-71
2021/01/14 00:32:00;;;;;;;4.03;2.28;;;;;;;0.85;100.00;95518.22;1040129;28;20441;-71
2021/01/14 00:32:30;;;;;;;4.68;2.58;;;;;;;0.91;100.00;95530.00;1035967;28;20018;-72
2021/01/14 00:33:01;;;;;;;3.60;2.53;;;;;;;0.90;100.00;95544.81;1031915;28;20029;-72
2021/01/14 00:33:32;;;;;;;4.38;2.50;;;;;;;0.85;100.00;95523.47;1035821;28;20121;-71
2021/01/14 00:34:03;;;;;;;3.65;2.60;;;;;;;0.89;100.00;95522.28;1036022;28;20451;-72
2021/01/14 00:34:33;;;;;;;3.97;2.53;;;;;;;0.90;100.00;95529.13;1032008;28;20030;-71
2021/01/14 00:35:05;;;;;;;3.95;2.33;;;;;;;0.92;100.00;95529.88;1040079;28;20024;-71
2021/01/14 00:35:35;;;;;;;3.85;2.60;;;;;;;0.92;100.00;95523.78;1031776;28;20098;-72
2021/01/14 00:36:07;;;;;;;4.00;2.78;;;;;;;0.91;100.00;95524.75;1040094;28;20017;-72
2021/01/14 00:38:04;;;;;;;3.72;2.53;;;;;;;0.82;100.00;95521.13;1035901;28;20108;-72
2021/01/14 00:38:35;;;;;;;3.17;2.00;;;;;;;0.88;100.00;95549.34;1036043;28;20018;-72
2021/01/14 00:39:06;;;;;;;3.55;2.63;;;;;;;0.91;100.00;95551.72;1040032;28;20068;-72
2021/01/14 00:39:36;;;;;;;3.58;2.13;;;;;;;0.86;100.00;95545.22;1035862;28;20482;-71
2021/01/14 00:40:08;;;;;;;3.00;1.95;;;;;;;0.91;100.00;95558.75;1044239;28;20021;-71
2021/01/14 00:40:39;;;;;;;3.22;2.33;;;;;;;0.84;100.00;95547.97;1032023;28;20057;-71
2021/01/14 00:41:10;;;;;;;3.40;2.08;;;;;;;0.92;100.00;95560.38;1048307;28;20187;-72
2021/01/14 00:41:41;;;;;;;3.33;2.38;;;;;;;0.90;100.00;95563.13;1044158;28;20017;-72
2021/01/14 00:42:19;;;;;;;3.88;2.67;;;;;;;0.92;100.00;95555.16;1039990;28;20022;-72
2021/01/14 00:43:02;;;;;;;4.07;2.30;;;;;;;0.88;100.00;95545.91;1036030;28;20056;-72
2021/01/14 00:43:33;;;;;;;3.75;2.40;;;;;;;0.90;100.00;95552.66;1043817;28;20024;-72
2021/01/14 00:44:04;;;;;;;3.70;2.60;;;;;;;0.87;100.00;95559.94;1044107;28;20103;-72
2021/01/14 00:44:35;;;;;;;4.22;2.50;;;;;;;0.83;100.00;95561.16;1032005;28;20142;-72
2021/01/14 00:45:07;;;;;;;3.85;2.63;;;;;;;0.87;100.00;95547.72;1044162;28;20393;-72
2021/01/14 00:45:38;;;;;;;3.70;2.40;;;;;;;0.91;100.00;95553.50;1039958;28;20021;-72
2021/01/14 00:46:16;;;;;;;4.13;2.70;;;;;;;0.90;100.00;95552.66;1040038;28;20029;-72
2021/01/14 00:46:47;;;;;;;4.15;2.55;;;;;;;0.91;100.00;95562.19;1036080;28;20022;-72
2021/01/14 00:47:18;;;;;;;3.53;2.47;;;;;;;0.90;100.00;95560.50;1036040;28;20021;-72
2021/01/14 00:47:49;;;;;;;3.85;2.50;;;;;;;0.90;100.00;95547.44;1035870;28;20055;-72
2021/01/14 00:48:19;;;;;;;4.88;2.63;;;;;;;0.90;100.00;95554.47;1035930;28;20067;-72
2021/01/14 00:48:50;;;;;;;3.72;2.72;;;;;;;0.92;100.00;95561.22;1044226;28;20029;-71
2021/01/14 00:49:22;;;;;;;3.72;2.42;;;;;;;0.90;100.00;95560.50;1040017;28;20028;-71
2021/01/14 00:49:53;;;;;;;3.50;2.15;;;;;;;0.91;100.00;95561.34;1032007;28;20093;-72
2021/01/14 00:50:25;;;;;;;3.92;2.53;;;;;;;0.90;100.00;95557.88;1032141;28;20041;-72
2021/01/14 00:50:56;;;;;;;4.28;2.60;;;;;;;0.66;100.00;95518.94;1036025;28;20022;-72
2021/01/14 00:51:34;;;;;;;3.90;2.60;;;;;;;0.78;100.00;95564.13;1036070;28;20451;-72
2021/01/14 00:52:05;;;;;;;4.45;2.75;;;;;;;0.89;100.00;95568.50;1035774;28;20032;-72
2021/01/14 00:52:35;;;;;;;4.28;2.60;;;;;;;0.89;100.00;95571.94;1039993;28;20036;-72
2021/01/14 00:53:06;;;;;;;4.53;2.70;;;;;;;0.88;100.00;95570.25;1044050;28;20054;-72
2021/01/14 00:53:38;;;;;;;4.35;2.80;;;;;;;0.86;100.00;95569.56;1031952;28;20098;-71
2021/01/14 00:54:09;;;;;;;4.35;2.85;;;;;;;0.83;100.00;95545.47;1039964;28;20100;-73
2021/01/14 00:54:40;;;;;;;4.65;3.13;;;;;;;0.90;100.00;95555.28;1044088;28;20022;-72
2021/01/14 00:55:13;;;;;;;5.63;2.92;;;;;;;0.90;100.00;95570.97;1040079;28;20055;-72
2021/01/14 00:55:44;;;;;;;4.20;3.00;;;;;;;0.79;100.00;95542.28;1031998;28;20019;-71
2021/01/14 00:56:15;;;;;;;5.03;3.00;;;;;;;0.93;100.00;95565.50;1039917;28;20601;-73
2021/01/14 00:56:46;;;;;;;4.50;3.28;;;;;;;0.93;100.00;95565.50;1040007;28;20347;-71
2021/01/14 00:57:17;;;;;;;4.13;2.90;;;;;;;0.90;100.00;95568.34;1040152;28;20013;-71
2021/01/14 00:57:48;;;;;;;4.93;3.08;;;;;;;0.90;100.00;95563.13;1040151;28;20476;-72
2021/01/14 00:58:19;;;;;;;4.13;2.92;;;;;;;0.89;100.00;95564.09;1035764;28;20010;-73
2021/01/14 00:58:49;;;;;;;4.18;2.97;;;;;;;0.88;100.00;95565.03;1035830;28;20077;-72
2021/01/14 00:59:20;;;;;;;4.15;2.78;;;;;;;0.88;100.00;95558.97;1040063;28;20466;-72
2021/01/14 00:59:51;;;;;;;4.60;3.08;;;;;;;0.88;100.00;95561.59;1036054;28;20424;-72
2021/01/14 01:00:22;;;;;;;4.32;3.00;;;;;;;0.82;100.00;95555.09;1031827;28;20471;-72
2021/01/14 01:00:53;;;;;;;4.72;3.13;;;;;;;0.85;100.00;95556.63;1039838;28;20018;-72
2021/01/14 01:01:25;;;;;;;4.97;3.05;;;;;;;0.89;100.00;95564.09;1040053;28;20044;-72
2021/01/14 01:01:55;;;;;;;4.30;2.92;;;;;;;0.92;100.00;95571.69;1031936;28;20463;-72
2021/01/14 01:02:26;;;;;;;4.95;3.40;;;;;;;0.91;100.00;95556.94;1035817;28;20019;-72
2021/01/14 01:02:57;;;;;;;4.60;3.03;;;;;;;0.90;100.00;95557.88;1031966;28;20021;-72
2021/01/14 01:03:28;;;;;;;4.65;3.30;;;;;;;0.91;100.00;95559.56;1035674;28;20034;-72
2021/01/14 01:03:59;;;;;;;5.00;3.33;;;;;;;0.91;100.00;95571.81;1035982;28;20021;-72
2021/01/14 01:04:30;;;;;;;4.32;2.92;;;;;;;0.86;100.00;95566.13;1039860;28;20044;-72
2021/01/14 01:05:00;;;;;;;5.63;3.50;;;;;;;0.88;100.00;95580.72;1031758;28;20010;-72
2021/01/14 01:05:31;;;;;;;4.97;3.42;;;;;;;0.82;100.00;95576.00;1040077;28;20032;-72
2021/01/14 01:06:02;;;;;;;4.53;2.80;;;;;;;0.87;100.00;95571.25;1044221;28;20016;-72
2021/01/14 01:06:35;;;;;;;6.35;3.75;;;;;;;0.88;100.00;95558.97;1035803;28;20504;-73
2021/01/14 01:07:06;;;;;;;5.78;3.80;;;;;;;0.84;100.00;95553.19;1031799;28;20478;-72
2021/01/14 01:07:37;;;;;;;4.78;3.42;;;;;;;0.83;100.00;95551.50;1036178;28;20151;-72
2021/01/14 01:08:08;;;;;;;4.80;3.33;;;;;;;0.83;100.00;95561.97;1036000;28;20045;-72
2021/01/14 01:08:39;;;;;;;4.78;3.30;;;;;;;0.87;100.00;95562.53;1039982;28;20020;-72
2021/01/14 01:09:10;;;;;;;5.35;3.58;;;;;;;0.85;100.00;95562.66;1031951;28;20041;-72
2021/01/14 01:09:41;;;;;;;5.30;3.60;;;;;;;0.87;100.00;95570.38;1036274;28;20014;-72
2021/01/14 01:10:12;;;;;;;5.57;4.00;;;;;;;0.87;100.00;95571.25;1040259;28;20017;-72
2021/01/14 01:10:43;;;;;;;5.13;3.47;;;;;;;0.85;100.00;95580.97;1031961;28;20566;-73
2021/01/14 01:11:14;;;;;;;5.80;3.42;;;;;;;0.85;100.00;95578.34;1039980;28;20386;-72
2021/01/14 01:11:45;;;;;;;4.85;3.63;;;;;;;0.86;100.00;95587.03;1052809;28;20035;-72
2021/01/14 01:12:15;;;;;;;5.43;3.80;;;;;;;0.80;100.00;95564.00;1040272;28;20024;-72
2021/01/14 01:12:54;;;;;;;5.25;3.50;;;;;;;0.87;100.00;95568.63;1040179;28;20016;-72
2021/01/14 01:13:25;;;;;;;6.63;3.40;;;;;;;0.86;100.00;95576.59;1040247;28;20448;-72
2021/01/14 01:13:55;;;;;;;6.20;4.10;;;;;;;0.89;100.00;95584.19;1040226;28;20022;-72
2021/01/14 01:14:26;;;;;;;5.30;3.70;;;;;;;0.88;100.00;95588.56;1036179;28;20048;-71
2021/01/14 01:14:57;;;;;;;4.63;3.10;;;;;;;0.84;100.00;95568.88;1032175;28;20157;-72
2021/01/14 01:15:29;;;;;;;4.35;3.00;;;;;;;0.84;100.00;95557.59;1035998;28;20667;-72
2021/01/14 01:16:00;;;;;;;5.70;3.22;;;;;;;0.90;100.00;95572.75;1031869;28;20022;-72
2021/01/14 01:16:31;;;;;;;5.18;3.50;;;;;;;0.92;100.00;95578.69;1035836;28;20443;-72
2021/01/14 01:17:02;;;;;;;5.53;3.50;;;;;;;0.90;100.00;95578.81;1044132;28;20100;-72
2021/01/14 01:17:33;;;;;;;4.88;3.42;;;;;;;0.89;100.00;95579.78;1040102;28;20478;-72
2021/01/14 01:18:04;;;;;;;5.13;3.70;;;;;;;0.85;100.00;95575.72;1032146;28;20026;-72
2021/01/14 01:18:35;;;;;;;4.80;3.38;;;;;;;0.89;100.00;95592.84;1036060;28;20022;-72
2021/01/14 01:19:05;;;;;;;5.90;3.90;;;;;;;0.85;100.00;95583.56;1032050;28;20022;-73
2021/01/14 01:19:36;;;;;;;5.97;3.60;;;;;;;0.84;100.00;95602.03;1032167;28;20019;-72
2021/01/14 01:20:08;;;;;;;4.57;3.10;;;;;;;0.88;100.00;95601.63;1036481;28;20085;-72
2021/01/14 01:20:39;;;;;;;4.65;3.13;;;;;;;0.89;100.00;95602.47;1036036;28;20395;-72
2021/01/14 01:21:09;;;;;;;4.15;2.90;;;;;;;0.89;100.00;95598.06;1039853;28;20025;-72
2021/01/14 01:21:42;;;;;;;4.78;3.38;;;;;;;0.89;100.00;95594.63;1031789;28;20109;-72
2021/01/14 01:22:13;;;;;;;5.57;3.53;;;;;;;0.81;100.00;95589.19;1039925;28;20025;-72
2021/01/14 01:22:44;;;;;;;5.18;3.28;;;;;;;0.87;100.00;95605.22;1027890;28;20117;-72
2021/01/14 01:23:15;;;;;;;5.32;3.67;;;;;;;0.87;100.00;95605.22;1048094;28;20054;-73
2021/01/14 01:23:46;;;;;;;5.22;3.35;;;;;;;0.88;100.00;95603.41;1035932;28;20498;-72
2021/01/14 01:24:17;;;;;;;4.28;2.35;;;;;;;0.87;100.00;95602.59;1035829;28;20022;-72
2021/01/14 01:24:48;;;;;;;4.88;3.50;;;;;;;0.86;100.00;95602.72;1035972;28;20029;-72
2021/01/14 01:25:19;;;;;;;4.82;3.13;;;;;;;0.81;100.00;95587.41;1027623;28;20030;-73
2021/01/14 01:25:50;;;;;;;4.72;3.22;;;;;;;0.82;100.00;95576.00;1039962;28;20033;-72
2021/01/14 01:26:21;;;;;;;3.97;2.83;;;;;;;0.87;100.00;95589.53;1040014;28;20447;-72
2021/01/14 01:26:52;;;;;;;4.30;2.28;;;;;;;0.88;100.00;95588.56;1035751;28;20025;-72
2021/01/14 01:27:23;;;;;;;3.80;2.63;;;;;;;0.89;100.00;95587.63;1043961;28;20021;-72
2021/01/14 01:27:54;;;;;;;3.55;2.45;;;;;;;0.82;100.00;95581.22;1035765;28;20129;-71
2021/01/14 01:28:24;;;;;;;3.35;2.35;;;;;;;0.90;100.00;95598.91;1027966;28;20015;-72
2021/01/14 01:28:55;;;;;;;4.15;2.78;;;;;;;0.90;100.00;95591.88;1039960;28;20071;-72
2021/01/14 01:29:26;;;;;;;4.18;2.42;;;;;;;0.85;100.00;95598.44;1039833;28;20037;-72
2021/01/14 01:29:57;;;;;;;3.05;2.13;;;;;;;0.90;100.00;95589.25;1043969;28;20021;-72
2021/01/14 01:30:28;;;;;;;3.33;2.30;;;;;;;0.89;100.00;95605.91;1036002;28;20478;-72
2021/01/14 01:30:59;;;;;;;3.25;2.25;;;;;;;0.91;100.00;95595.34;1044162;28;20024;-71
2021/01/14 01:31:30;;;;;;;3.35;2.20;;;;;;;0.90;100.00;95584.03;1044081;28;20032;-73
2021/01/14 01:32:01;;;;;;;4.00;2.55;;;;;;;0.90;100.00;95585.81;1043923;28;20419;-72
2021/01/14 01:32:32;;;;;;;3.70;2.25;;;;;;;0.84;100.00;95568.88;1043985;28;20021;-72
2021/01/14 01:33:05;;;;;;;3.30;1.95;;;;;;;0.91;100.00;95575.25;1031832;28;20018;-72
2021/01/14 01:33:36;;;;;;;3.25;2.13;;;;;;;0.94;100.00;95584.59;1031785;28;20027;-73
2021/01/14 01:34:06;;;;;;;3.15;1.90;;;;;;;0.94;100.00;95595.06;1044084;28;20021;-72
2021/01/14 01:34:37;;;;;;;2.85;2.10;;;;;;;0.96;100.00;95593.19;1031830;28;20510;-72
2021/01/14 01:35:09;;;;;;;3.05;2.03;;;;;;;0.96;100.00;95594.94;1031841;28;20036;-72
2021/01/14 01:35:40;;;;;;;3.55;1.80;;;;;;;0.93;100.00;95594.25;1035754;28;20021;-73
2021/01/14 01:36:12;;;;;;;3.22;2.00;;;;;;;0.93;100.00;95599.47;1039917;28;20043;-72
2021/01/14 01:36:42;;;;;;;3.20;2.10;;;;;;;0.96;100.00;95597.56;1035891;28;20029;-72
2021/01/14 01:37:13;;;;;;;2.90;1.95;;;;;;;0.96;100.00;95598.41;1039972;28;20445;-72
2021/01/14 01:37:44;;;;;;;3.03;2.15;;;;;;;0.94;100.00;95595.06;1035970;28;20428;-73
2021/01/14 01:38:15;;;;;;;3.08;2.10;;;;;;;0.87;100.00;95591.28;1035710;28;20021;-73
2021/01/14 01:38:45;;;;;;;2.97;1.95;;;;;;;0.89;100.00;95603.31;1031968;28;20034;-72
2021/01/14 01:39:16;;;;;;;3.10;2.30;;;;;;;0.89;100.00;95603.31;1044227;28;20043;-73
2021/01/14 01:39:47;;;;;;;7.03;2.00;;;;;;;0.86;100.00;95600.94;1048324;28;20574;-73
2021/01/14 01:40:18;;;;;;;3.05;2.15;;;;;;;0.89;100.00;95605.91;1043977;28;20069;-73
2021/01/14 01:40:58;;;;;;;2.95;2.10;;;;;;;0.90;100.00;95615.41;1031858;28;20125;-72
2021/01/14 01:41:28;;;;;;;;;;;;;;;0.93;100.00;95609.94;1032282;28;20022;-71
2021/01/14 01:41:59;;;;;;;3.13;2.13;;;;;;;0.91;100.00;95598.78;1035791;28;19910;-72
2021/01/14 01:42:30;;;;;;;4.43;2.00;;;;;;;0.89;100.00;95600.69;1039884;28;20112;-72
2021/01/14 01:43:01;;;;;;;2.65;1.60;;;;;;;0.92;100.00;95592.59;1040107;28;20022;-72
2021/01/14 01:43:32;;;;;;;3.25;1.90;;;;;;;0.85;100.00;95567.88;1031799;28;20590;-72
2021/01/14 01:44:03;;;;;;;3.03;1.90;;;;;;;0.92;100.00;95582.16;1039776;28;20025;-73
2021/01/14 01:44:33;;;;;;;2.72;2.05;;;;;;;0.90;100.00;95573.56;1031760;28;20054;-72
2021/01/14 01:45:05;;;;;;;3.10;2.10;;;;;;;0.86;100.00;95587.84;1035827;28;20026;-72
2021/01/14 01:45:36;;;;;;;3.08;1.90;;;;;;;0.88;100.00;95580.72;1039910;28;20108;-72
2021/01/14 01:46:07;;;;;;;3.45;2.13;;;;;;;0.87;100.00;95576.47;1039782;28;20317;-73
2021/01/14 01:46:37;;;;;;;3.33;2.05;;;;;;;0.87;100.00;95579.06;1039885;28;20892;-72
2021/01/14 01:47:08;;;;;;;2.75;2.03;;;;;;;0.85;100.00;95580.97;1031706;28;20449;-73
2021/01/14 01:47:39;;;;;;;3.20;2.03;;;;;;;0.81;100.00;95581.34;1044026;28;20017;-72
2021/01/14 01:48:10;;;;;;;2.92;2.10;;;;;;;0.84;100.00;95602.03;1039898;28;20052;-73
2021/01/14 01:48:41;;;;;;;3.80;2.15;;;;;;;0.69;100.00;95583.19;1043914;28;20025;-72
2021/01/14 01:49:12;;;;;;;3.40;2.25;;;;;;;0.61;100.00;95572.50;1048151;28;20445;-73
2021/01/14 01:49:43;;;;;;;2.80;2.20;;;;;;;0.85;100.00;95616.72;1035810;28;20028;-72
2021/01/14 01:50:14;;;;;;;3.03;1.95;;;;;;;0.84;100.00;95613.31;1035673;28;20089;-73
2021/01/14 01:50:45;;;;;;;4.30;2.20;;;;;;;0.83;100.00;95603.78;1039940;28;20120;-72
2021/01/14 01:51:16;;;;;;;3.90;1.90;;;;;;;0.85;100.00;95607.09;1031633;28;20038;-72
2021/01/14 01:51:47;;;;;;;3.00;1.90;;;;;;;0.88;100.00;95596.41;1044014;28;20079;-72
2021/01/14 01:52:18;;;;;;;3.40;2.22;;;;;;;0.87;100.00;95594.75;1048104;28;20024;-73
2021/01/14 01:52:49;;;;;;;4.00;2.47;;;;;;;0.83;100.00;95585.50;1044022;28;20029;-71
2021/01/14 01:53:20;;;;;;;3.30;2.17;;;;;;;0.87;100.00;95589.53;1031638;28;20024;-73
2021/01/14 01:53:51;;;;;;;3.25;2.38;;;;;;;0.89;100.00;95584.19;1035768;28;20056;-72
2021/01/14 01:54:22;;;;;;;3.03;2.00;;;;;;;0.89;100.00;95592.03;1039835;28;20482;-72
2021/01/14 01:54:53;;;;;;;3.05;2.03;;;;;;;0.84;100.00;95586.34;1032495;28;20072;-72
2021/01/14 01:55:24;;;;;;;3.00;2.28;;;;;;;0.86;100.00;95592.25;1040721;28;20075;-72
2021/01/14 01:55:55;;;;;;;4.15;2.50;;;;;;;0.87;100.00;95591.28;1044899;28;20028;-72
2021/01/14 01:56:26;;;;;;;3.20;2.33;;;;;;;0.70;100.00;95564.75;1040549;28;20017;-72
2021/01/14 01:56:56;;;;;;;3.30;2.47;;;;;;;0.87;100.00;95599.13;1036564;28;20110;-73
2021/01/14 01:57:27;;;;;;;4.45;2.55;;;;;;;0.77;100.00;95575.56;1032564;28;20026;-72
2021/01/14 01:57:58;;;;;;;3.78;2.65;;;;;;;0.87;100.00;95594.75;1032746;28;20097;-72
2021/01/14 01:58:29;;;;;;;4.35;2.83;;;;;;;0.85;100.00;95595.81;1036563;28;20053;-72
2021/01/14 01:59:00;;;;;;;3.80;2.78;;;;;;;0.79;100.00;95593.72;1044668;28;20056;-72
2021/01/14 01:59:32;;;;;;;3.75;2.63;;;;;;;0.76;100.00;95589.56;1036626;28;20026;-72
2021/01/14 02:00:04;;;;;;;4.57;3.22;;;;;;;0.80;100.00;95588.38;1032695;28;20498;-72
2021/01/14 02:00:34;;;;;;;3.33;2.63;;;;;;;0.80;100.00;95598.81;1040696;28;20119;-72
2021/01/14 02:01:08;;;;;;;4.80;3.28;;;;;;;0.51;100.00;95551.53;1040445;28;20029;-72
2021/01/14 02:01:39;;;;;;;3.97;2.88;;;;;;;0.77;100.00;95593.84;1036687;28;20381;-72
2021/01/14 02:02:21;;;;;;;5.05;3.08;;;;;;;0.81;100.00;95590.00;1036649;28;20036;-73
2021/01/14 02:02:52;;;;;;;5.63;3.40;;;;;;;0.80;100.00;95591.00;1032680;28;20022;-72
2021/01/14 02:03:23;;;;;;;4.45;3.10;;;;;;;0.83;100.00;95584.66;1036318;28;20018;-73
2021/01/14 02:03:53;;;;;;;5.03;3.40;;;;;;;0.85;100.00;95587.97;1036621;28;20026;-73
2021/01/14 02:04:24;;;;;;;5.07;3.53;;;;;;;0.82;100.00;95590.84;1036709;28;20448;-73
2021/01/14 02:04:56;;;;;;;5.03;3.50;;;;;;;0.79;100.00;95597.16;1040582;28;20029;-73
2021/01/14 02:05:26;;;;;;;4.80;3.60;;;;;;;0.70;100.00;95590.91;1032488;28;20344;-72
2021/01/14 02:05:58;;;;;;;4.63;3.03;;;;;;;0.79;100.00;95593.72;1044945;28;20108;-72
2021/01/14 02:06:29;;;;;;;5.15;3.85;;;;;;;0.79;100.00;95598.94;1032587;28;20117;-72
2021/01/14 02:07:03;;;;;;;4.55;3.30;;;;;;;0.79;100.00;95598.94;1032515;28;20032;-73
2021/01/14 02:07:53;;;;;;;4.38;3.47;;;;;;;0.77;100.00;95600.84;1032578;28;20486;-72
2021/01/14 02:08:37;;;;;;;4.68;3.30;;;;;;;0.78;100.00;95599.91;1036882;28;20117;-72
2021/01/14 02:09:09;;;;;;;5.22;3.70;;;;;;;0.79;100.00;95599.78;1036837;28;20056;-73
2021/01/14 02:09:40;;;;;;;5.05;3.40;;;;;;;0.78;100.00;95613.78;1036881;28;20036;-72
2021/01/14 02:10:14;;;;;;;5.20;3.70;;;;;;;0.67;100.00;95592.94;1037114;28;20052;-72
2021/01/14 02:10:56;;;;;;;4.63;3.50;;;;;;;0.75;100.00;95606.22;1042140;28;20044;-71
2021/01/14 02:11:28;;;;;;;3.85;2.83;;;;;;;0.74;100.00;95607.97;1034598;28;20018;-71
2021/01/14 02:12:04;;;;;;;5.10;3.63;;;;;;;0.73;100.00;95592.41;1042988;28;20021;-71
2021/01/14 02:12:39;;;;;;;5.65;3.40;;;;;;;0.73;100.00;95606.34;1043032;28;20021;-72
2021/01/14 02:13:15;;;;;;;5.50;3.72;;;;;;;0.73;100.00;95606.34;1043030;28;20025;-71
2021/01/14 02:13:59;;;;;;;4.85;3.13;;;;;;;0.59;100.00;95574.41;1042969;28;20028;-71
2021/01/14 02:14:30;;;;;;;4.75;3.38;;;;;;;0.76;100.00;95602.63;1039156;28;20418;-71
2021/01/14 02:15:01;;;;;;;5.38;3.38;;;;;;;0.75;100.00;95598.38;1043240;28;20009;-72
2021/01/14 02:15:32;;;;;;;5.55;3.80;;;;;;;0.74;100.00;95600.13;1046841;28;20048;-72
2021/01/14 02:16:03;;;;;;;4.13;3.03;;;;;;;0.63;100.00;95589.72;1047315;28;20038;-72
2021/01/14 02:16:37;;;;;;;4.65;3.38;;;;;;;0.71;100.00;95607.41;1034808;28;20041;-72
2021/01/14 02:17:08;;;;;;;5.07;3.42;;;;;;;0.61;100.00;95586.41;1043265;28;20019;-71
2021/01/14 02:17:38;;;;;;;4.20;2.85;;;;;;;0.71;100.00;95600.38;1043151;28;20413;-73
2021/01/14 02:18:09;;;;;;;5.45;3.13;;;;;;;0.73;100.00;95618.53;1043276;28;20115;-71
2021/01/14 02:18:41;;;;;;;5.50;3.30;;;;;;;0.72;100.00;95606.44;1047376;28;20093;-72
2021/01/14 02:19:16;;;;;;;5.78;3.53;;;;;;;0.71;100.00;95600.38;1034783;28;20018;-71
2021/01/14 02:19:47;;;;;;;5.70;3.55;;;;;;;0.70;100.00;95600.53;1034405;28;20085;-72
2021/01/14 02:20:18;;;;;;;4.43;3.10;;;;;;;0.74;100.00;95609.75;1042942;28;20088;-71
2021/01/14 02:20:49;;;;;;;5.25;3.35;;;;;;;0.72;100.00;95602.03;1047107;28;20079;-71
2021/01/14 02:21:20;;;;;;;5.15;3.05;;;;;;;0.65;100.00;95600.06;1045254;28;20095;-72
2021/01/14 02:21:54;;;;;;;4.63;3.05;;;;;;;0.73;100.00;95608.09;1044945;28;20051;-73
2021/01/14 02:22:29;;;;;;;4.57;3.22;;;;;;;0.72;100.00;95612.50;1032508;28;20137;-72
2021/01/14 02:23:04;;;;;;;4.47;2.95;;;;;;;0.73;100.00;95618.53;1044751;28;20025;-72
2021/01/14 02:23:48;;;;;;;5.30;3.53;;;;;;;0.74;100.00;95628.06;1032461;28;20026;-72
2021/01/14 02:24:32;;;;;;;4.15;3.00;;;;;;;0.71;100.00;95607.41;1036468;28;20013;-72
2021/01/14 02:25:23;;;;;;;4.30;3.00;;;;;;;0.78;100.00;95605.94;1032433;28;20019;-71
2021/01/14 02:26:02;;;;;;;4.00;2.90;;;;;;;0.77;100.00;95598.22;1036306;28;20484;-73
2021/01/14 02:26:33;;;;;;;4.50;2.90;;;;;;;0.76;100.00;95607.84;1040600;28;20021;-72
2021/01/14 02:27:05;;;;;;;5.07;3.25;;;;;;;0.71;100.00;95596.94;1040416;28;20046;-72
2021/01/14 02:27:36;;;;;;;4.78;3.25;;;;;;;0.77;100.00;95601.69;1036580;28;20207;-72
2021/01/14 02:28:07;;;;;;;4.95;3.20;;;;;;;0.74;100.00;95602.75;1032399;28;20092;-72
2021/01/14 02:28:39;;;;;;;5.20;3.42;;;;;;;0.65;100.00;95589.63;1036445;28;20025;-72
2021/01/14 02:29:10;;;;;;;4.45;3.03;;;;;;;0.74;100.00;95601.94;1036405;28;20421;-73
2021/01/14 02:29:41;;;;;;;5.03;3.33;;;;;;;0.74;100.00;95612.38;1040679;28;20027;-72
2021/01/14 02:30:12;;;;;;;4.68;3.17;;;;;;;0.69;100.00;95623.19;1040460;28;20032;-73
2021/01/14 02:30:43;;;;;;;5.13;3.70;;;;;;;0.73;100.00;95624.63;1036480;28;20045;-73
2021/01/14 02:31:15;;;;;;;4.65;3.15;;;;;;;0.74;100.00;95631.50;1040615;28;20049;-72